Time;durP1;ratioP1;P1;durP2;ratioP2;P2;SDS_P1;SDS_P2;PMS_P1;PMS_P2;Temp;Humidity;BMP_temperature;BMP_pressure;BME280_temperature;BME280_humidity;BME280_pressure;Samples;Min_cycle;Max_cycle;Signal;HPM_P1;HPM_P2
2021/05/23 00:01:17;;;;;;;11.90;8.35;;;11.60;98.40;;;;;;5028826;28;20097;-84
2021/05/23 00:06:10;;;;;;;12.55;8.00;;;11.60;98.40;;;;;;5071910;28;20574;-84
2021/05/23 00:08:36;;;;;;;12.50;8.65;;;11.60;98.30;;;;;;5069289;28;20020;-84
2021/05/23 00:11:07;;;;;;;12.27;8.00;;;11.60;98.20;;;;;;5061454;28;20024;-84
2021/05/23 00:13:37;;;;;;;10.70;7.82;;;11.50;98.30;;;;;;5077199;28;20025;-84
2021/05/23 00:16:06;;;;;;;10.75;7.43;;;11.50;98.40;;;;;;5076007;28;20119;-83
2021/05/23 00:18:35;;;;;;;12.10;7.35;;;11.50;98.40;;;;;;5071403;28;20363;-83
2021/05/23 00:21:04;;;;;;;10.30;7.88;;;11.50;98.50;;;;;;5073935;28;20028;-84
2021/05/23 00:23:29;;;;;;;10.82;7.90;;;11.50;98.50;;;;;;5076914;28;20025;-84
2021/05/23 00:25:55;;;;;;;9.98;7.55;;;11.50;98.60;;;;;;5084117;28;20040;-84
2021/05/23 00:28:21;;;;;;;10.15;7.70;;;11.50;98.60;;;;;;5055253;28;20028;-84
2021/05/23 00:30:47;;;;;;;10.13;7.28;;;11.50;98.60;;;;;;5063842;28;20032;-84
2021/05/23 00:33:13;;;;;;;13.52;8.02;;;11.50;98.70;;;;;;5080131;28;20028;-83
2021/05/23 00:35:39;;;;;;;11.45;7.22;;;11.50;98.80;;;;;;5091118;28;20020;-83
2021/05/23 00:38:06;;;;;;;13.60;7.60;;;11.50;98.80;;;;;;5048721;28;20036;-83
2021/05/23 00:40:34;;;;;;;11.63;7.15;;;11.50;98.70;;;;;;5054814;28;20032;-83
2021/05/23 00:42:59;;;;;;;8.23;6.60;;;11.50;98.60;;;;;;5073008;28;20492;-83
2021/05/23 00:45:25;;;;;;;9.55;6.57;;;11.40;98.50;;;;;;5072678;28;20129;-84
2021/05/23 00:47:52;;;;;;;8.77;6.20;;;11.40;98.50;;;;;;5077234;28;20142;-84
2021/05/23 00:50:23;;;;;;;9.23;5.82;;;11.40;98.60;;;;;;5091696;28;20020;-83
2021/05/23 00:52:51;;;;;;;9.50;6.10;;;11.40;98.60;;;;;;5086828;28;20031;-83
2021/05/23 00:55:16;;;;;;;10.63;6.07;;;11.40;98.80;;;;;;5082357;28;20012;-83
2021/05/23 00:57:42;;;;;;;10.45;6.22;;;11.30;98.60;;;;;;5057651;28;20029;-84
2021/05/23 01:00:10;;;;;;;10.30;6.20;;;11.30;98.70;;;;;;5054682;28;20044;-84
2021/05/23 01:02:44;;;;;;;10.40;6.32;;;11.30;98.70;;;;;;5087745;28;20074;-83
2021/05/23 01:05:15;;;;;;;9.88;5.90;;;11.30;99.10;;;;;;5086343;28;20040;-84
2021/05/23 01:07:42;;;;;;;8.98;6.13;;;11.30;98.80;;;;;;5074471;28;20095;-84
2021/05/23 01:10:15;;;;;;;9.32;6.13;;;11.30;99.10;;;;;;5074536;28;20028;-84
2021/05/23 01:13:20;;;;;;;8.88;5.53;;;11.30;98.90;;;;;;5073438;28;20070;-84
2021/05/23 01:15:49;;;;;;;8.45;5.28;;;11.40;99.00;;;;;;5093551;28;20019;-84
2021/05/23 01:18:20;;;;;;;8.95;5.05;;;11.40;99.00;;;;;;5083632;28;20077;-83
2021/05/23 01:20:59;;;;;;;9.35;5.28;;;11.40;99.30;;;;;;5074366;28;20047;-84
2021/05/23 01:23:31;;;;;;;8.32;4.82;;;11.40;99.00;;;;;;5068956;28;20231;-83
2021/05/23 01:26:10;;;;;;;8.40;4.93;;;11.40;99.10;;;;;;5100055;28;20509;-83
2021/05/23 01:28:48;;;;;;;9.70;4.75;;;11.40;99.00;;;;;;5098437;28;20477;-83
2021/05/23 01:31:18;;;;;;;8.48;5.03;;;11.40;98.90;;;;;;5103622;28;20016;-84
2021/05/23 01:33:49;;;;;;;11.07;5.63;;;11.40;98.80;;;;;;5073728;28;20465;-84
2021/05/23 01:36:15;;;;;;;;;;;11.30;98.80;;;;;;5075738;28;20115;-84
2021/05/23 01:38:40;;;;;;;9.13;4.90;;;11.30;98.80;;;;;;5103965;28;19946;-84
2021/05/23 01:41:09;;;;;;;8.88;5.15;;;11.30;98.80;;;;;;5077598;28;20127;-84
2021/05/23 01:43:36;;;;;;;8.68;5.28;;;11.30;98.90;;;;;;5080886;28;20034;-83
2021/05/23 01:46:03;;;;;;;9.43;6.30;;;11.30;99.00;;;;;;5070553;28;20024;-83
2021/05/23 01:48:29;;;;;;;9.50;5.78;;;11.30;98.90;;;;;;5073968;28;20097;-84
2021/05/23 01:50:55;;;;;;;11.25;5.88;;;11.30;98.90;;;;;;5077282;28;20024;-83
2021/05/23 01:53:21;;;;;;;10.88;6.63;;;11.30;98.90;;;;;;5084892;28;20073;-83
2021/05/23 01:55:47;;;;;;;9.27;6.20;;;11.30;99.00;;;;;;5057178;28;20028;-84
2021/05/23 01:58:13;;;;;;;11.00;6.45;;;11.30;99.00;;;;;;5099820;28;20042;-83
2021/05/23 02:00:45;;;;;;;9.25;6.63;;;11.30;99.00;;;;;;5080607;28;20045;-83
2021/05/23 02:03:12;;;;;;;9.98;6.72;;;11.30;99.00;;;;;;5092363;28;20028;-83
2021/05/23 02:05:42;;;;;;;14.38;7.28;;;11.30;99.30;;;;;;5086541;28;20043;-84
2021/05/23 02:08:08;;;;;;;12.05;7.25;;;11.30;99.00;;;;;;5092709;28;20039;-83
2021/05/23 02:10:34;;;;;;;12.23;7.28;;;11.30;98.90;;;;;;5057328;28;20485;-84
2021/05/23 02:13:01;;;;;;;9.07;6.70;;;11.30;99.00;;;;;;5057129;28;20504;-83
2021/05/23 02:15:27;;;;;;;12.75;8.43;;;11.30;98.90;;;;;;5073898;28;20392;-83
2021/05/23 02:17:53;;;;;;;13.20;6.70;;;11.20;98.90;;;;;;5074793;28;20021;-84
2021/05/23 02:20:22;;;;;;;11.73;7.05;;;11.20;98.90;;;;;;5087029;28;20016;-84
2021/05/23 02:22:49;;;;;;;10.45;7.13;;;11.20;98.90;;;;;;5073668;28;20127;-84
2021/05/23 02:25:20;;;;;;;10.57;7.95;;;11.20;98.90;;;;;;5073686;28;20485;-84
2021/05/23 02:27:51;;;;;;;10.38;7.70;;;11.20;98.90;;;;;;5092035;28;20046;-84
2021/05/23 02:30:23;;;;;;;10.77;7.38;;;11.20;98.90;;;;;;5074276;28;20354;-84
2021/05/23 02:32:49;;;;;;;11.02;7.70;;;11.20;98.80;;;;;;5085595;28;20106;-83
2021/05/23 02:35:17;;;;;;;10.65;7.65;;;11.30;98.90;;;;;;5075718;28;20027;-83
2021/05/23 02:37:43;;;;;;;14.93;7.15;;;11.20;98.90;;;;;;5091882;28;20028;-84
2021/05/23 02:40:15;;;;;;;9.35;7.30;;;11.20;98.90;;;;;;5056831;28;20081;-84
2021/05/23 02:42:41;;;;;;;11.40;7.50;;;11.20;98.90;;;;;;5073483;28;20016;-83
2021/05/23 02:45:09;;;;;;;9.82;7.57;;;11.20;99.00;;;;;;5071723;28;20118;-83
2021/05/23 02:47:36;;;;;;;10.38;7.70;;;11.20;98.90;;;;;;5077336;28;20054;-84
2021/05/23 02:50:04;;;;;;;11.57;7.72;;;11.20;98.90;;;;;;5060586;28;20028;-84
2021/05/23 02:52:30;;;;;;;10.95;8.18;;;11.20;98.90;;;;;;5096210;28;20011;-84
2021/05/23 02:54:56;;;;;;;11.82;8.38;;;11.20;99.00;;;;;;5104569;28;20397;-83
2021/05/23 02:57:22;;;;;;;13.05;8.45;;;11.20;99.00;;;;;;5079921;28;20464;-83
2021/05/23 02:59:48;;;;;;;12.55;8.23;;;11.20;99.10;;;;;;5073612;28;20029;-84
2021/05/23 03:02:14;;;;;;;12.18;8.48;;;11.20;99.10;;;;;;5060331;28;20450;-84
2021/05/23 03:04:40;;;;;;;11.95;8.85;;;11.20;99.10;;;;;;5060112;28;20043;-84
2021/05/23 03:07:05;;;;;;;12.43;8.77;;;11.20;99.10;;;;;;5043667;28;20028;-84
2021/05/23 03:09:31;;;;;;;10.30;7.93;;;11.20;99.10;;;;;;5056757;28;20044;-84
2021/05/23 03:11:57;;;;;;;13.38;8.98;;;11.20;99.10;;;;;;5067685;28;20024;-84
2021/05/23 03:14:23;;;;;;;11.90;8.60;;;11.20;99.10;;;;;;5076517;28;20016;-84
2021/05/23 03:16:48;;;;;;;10.68;8.25;;;11.20;99.10;;;;;;5076807;28;20109;-84
2021/05/23 03:19:14;;;;;;;12.38;8.35;;;11.20;99.10;;;;;;5059851;28;20170;-83
2021/05/23 03:21:40;;;;;;;13.27;8.38;;;11.20;99.10;;;;;;5060103;28;20036;-83
2021/05/23 03:24:06;;;;;;;12.30;8.80;;;11.10;99.10;;;;;;5073197;28;20029;-83
2021/05/23 03:26:34;;;;;;;11.00;8.43;;;11.10;99.10;;;;;;5028491;28;20424;-83
2021/05/23 03:28:59;;;;;;;11.65;9.13;;;11.10;99.00;;;;;;5073175;28;20035;-84
2021/05/23 03:31:25;;;;;;;12.27;9.15;;;11.10;99.00;;;;;;5048459;28;20028;-84
2021/05/23 03:34:06;;;;;;;12.05;8.80;;;11.10;99.00;;;;;;5067074;28;20017;-83
2021/05/23 03:36:32;;;;;;;11.05;9.23;;;11.10;99.00;;;;;;5040330;28;20103;-84
2021/05/23 03:38:57;;;;;;;11.65;8.23;;;11.10;99.00;;;;;;5076434;28;20055;-83
2021/05/23 03:41:23;;;;;;;12.50;8.70;;;11.10;99.00;;;;;;5076135;28;20060;-84
2021/05/23 03:43:49;;;;;;;11.10;8.52;;;11.10;99.10;;;;;;5043083;28;20410;-84
2021/05/23 03:46:14;;;;;;;11.10;8.55;;;11.10;99.10;;;;;;5042982;28;20057;-84
2021/05/23 03:48:40;;;;;;;11.45;8.50;;;11.10;99.10;;;;;;5094362;28;20059;-84
2021/05/23 03:51:06;;;;;;;13.73;9.48;;;11.00;99.00;;;;;;5039490;28;20071;-84
2021/05/23 03:53:31;;;;;;;11.85;9.80;;;11.00;99.00;;;;;;5052714;28;20114;-84
2021/05/23 03:55:57;;;;;;;14.13;9.52;;;11.00;99.40;;;;;;5056022;28;20031;-83
2021/05/23 03:58:23;;;;;;;12.48;9.68;;;11.00;99.30;;;;;;5075067;28;20023;-84
2021/05/23 04:00:48;;;;;;;11.57;8.95;;;11.00;99.30;;;;;;5059142;28;20077;-84
2021/05/23 04:03:14;;;;;;;14.05;10.27;;;11.00;99.30;;;;;;5059043;28;20067;-84
2021/05/23 04:05:40;;;;;;;14.98;10.95;;;11.00;99.30;;;;;;5075428;28;20056;-84
2021/05/23 04:08:06;;;;;;;14.68;10.95;;;11.00;99.30;;;;;;5059135;28;20036;-84
2021/05/23 04:10:37;;;;;;;15.00;12.00;;;11.00;99.30;;;;;;5052332;28;20039;-84
2021/05/23 04:13:05;;;;;;;19.13;13.75;;;11.00;99.40;;;;;;5059643;28;20020;-83
2021/05/23 04:15:31;;;;;;;16.30;13.18;;;11.00;99.60;;;;;;5075832;28;20024;-84
2021/05/23 04:17:57;;;;;;;18.42;13.85;;;11.00;99.40;;;;;;5093669;28;20020;-84
2021/05/23 04:20:23;;;;;;;16.63;13.30;;;11.00;99.40;;;;;;5075423;28;20066;-84
2021/05/23 04:22:50;;;;;;;18.90;14.75;;;11.00;99.40;;;;;;5093607;28;20030;-84
2021/05/23 04:25:18;;;;;;;18.73;14.52;;;11.00;99.40;;;;;;5075456;28;20029;-84
2021/05/23 04:27:46;;;;;;;19.35;15.45;;;11.00;99.40;;;;;;5058653;28;20035;-84
2021/05/23 04:30:15;;;;;;;21.27;16.45;;;11.00;99.50;;;;;;5075300;28;20069;-83
2021/05/23 04:32:40;;;;;;;24.80;19.45;;;11.00;99.50;;;;;;5075080;28;20044;-84
2021/05/23 04:35:08;;;;;;;26.13;19.33;;;11.00;99.50;;;;;;5075221;28;20398;-83
2021/05/23 04:37:34;;;;;;;25.17;18.90;;;11.00;99.60;;;;;;5093417;28;20027;-84
2021/05/23 04:40:00;;;;;;;24.48;19.05;;;11.00;99.60;;;;;;5093182;28;20024;-83
2021/05/23 04:42:26;;;;;;;27.17;20.73;;;11.00;99.60;;;;;;5093187;28;20078;-83
2021/05/23 04:44:52;;;;;;;27.50;21.35;;;11.00;99.70;;;;;;5093128;28;20048;-84
2021/05/23 04:47:18;;;;;;;28.05;20.70;;;11.00;99.70;;;;;;5070910;28;20416;-83
2021/05/23 04:49:44;;;;;;;27.65;21.50;;;11.00;99.80;;;;;;5048247;28;20083;-84
2021/05/23 04:52:12;;;;;;;28.83;21.45;;;11.00;99.90;;;;;;5074780;28;20157;-83
2021/05/23 04:54:39;;;;;;;28.33;22.15;;;11.00;99.90;;;;;;5074683;28;20024;-84
2021/05/23 04:57:05;;;;;;;29.00;21.70;;;11.10;99.90;;;;;;5069281;28;20084;-83
2021/05/23 04:59:32;;;;;;;29.98;22.70;;;11.10;99.90;;;;;;5054844;28;20108;-83
2021/05/23 05:01:58;;;;;;;32.15;23.88;;;11.10;99.90;;;;;;5067500;28;20080;-84
2021/05/23 05:04:24;;;;;;;36.97;26.58;;;11.10;99.90;;;;;;5087810;28;20052;-84
2021/05/23 05:06:50;;;;;;;34.45;25.55;;;11.10;99.90;;;;;;5083533;28;20096;-83
2021/05/23 05:09:15;;;;;;;40.08;28.35;;;11.20;99.90;;;;;;5055324;28;20577;-83
2021/05/23 05:11:41;;;;;;;35.13;26.38;;;11.20;99.90;;;;;;5057866;28;20039;-83
2021/05/23 05:14:10;;;;;;;39.20;28.23;;;11.20;99.90;;;;;;5071830;28;20054;-83
2021/05/23 05:16:40;;;;;;;36.42;27.90;;;11.20;99.90;;;;;;5075070;28;20119;-83
2021/05/23 05:19:06;;;;;;;40.73;30.60;;;11.20;99.90;;;;;;5058436;28;20056;-83
2021/05/23 05:21:32;;;;;;;42.17;31.60;;;11.20;99.90;;;;;;5057711;28;20028;-84
2021/05/23 05:23:58;;;;;;;39.13;29.85;;;11.20;99.90;;;;;;5074484;28;20031;-83
2021/05/23 05:26:24;;;;;;;40.83;30.52;;;11.20;99.90;;;;;;5088498;28;20028;-83
2021/05/23 05:28:50;;;;;;;39.60;30.00;;;11.20;99.90;;;;;;5092444;28;20032;-83
2021/05/23 05:31:15;;;;;;;41.50;29.95;;;11.20;99.90;;;;;;5074312;28;20085;-84
2021/05/23 05:33:41;;;;;;;37.80;27.40;;;11.10;99.90;;;;;;5057576;28;20020;-84
2021/05/23 05:36:07;;;;;;;39.58;29.13;;;11.20;99.90;;;;;;5057568;28;20035;-83
2021/05/23 05:38:33;;;;;;;36.20;26.33;;;11.10;99.90;;;;;;5080040;28;20018;-83
2021/05/23 05:40:59;;;;;;;36.65;27.83;;;11.10;99.90;;;;;;5065524;28;20032;-83
2021/05/23 05:43:25;;;;;;;33.83;25.73;;;11.10;99.90;;;;;;5073925;28;20362;-83
2021/05/23 05:45:51;;;;;;;35.05;25.17;;;11.10;99.90;;;;;;5094383;28;20039;-83
2021/05/23 05:48:17;;;;;;;32.13;25.27;;;11.10;99.90;;;;;;5094538;28;20059;-83
2021/05/23 05:50:44;;;;;;;36.78;28.48;;;11.10;99.90;;;;;;5075812;28;20043;-83
2021/05/23 05:53:09;;;;;;;35.83;27.23;;;11.10;99.90;;;;;;5092218;28;20032;-83
2021/05/23 05:55:35;;;;;;;35.60;28.52;;;11.10;99.90;;;;;;5088263;28;20031;-83
2021/05/23 05:58:01;;;;;;;40.33;30.80;;;11.20;99.90;;;;;;5092273;28;20060;-84
2021/05/23 06:00:26;;;;;;;38.67;29.45;;;11.20;99.90;;;;;;5057357;28;20024;-83
2021/05/23 06:02:52;;;;;;;38.88;27.17;;;11.20;99.90;;;;;;5074261;28;20419;-84
2021/05/23 06:05:18;;;;;;;43.95;30.52;;;11.20;99.90;;;;;;5068852;23;20061;-86
2021/05/23 06:07:44;;;;;;;39.53;29.15;;;11.20;99.90;;;;;;5058030;28;20456;-85
2021/05/23 06:10:11;;;;;;;41.08;29.73;;;11.20;99.90;;;;;;5081802;28;20024;-85
2021/05/23 06:12:36;;;;;;;36.38;28.33;;;11.30;99.90;;;;;;5037266;28;20040;-85
2021/05/23 06:15:03;;;;;;;34.88;28.42;;;11.30;99.90;;;;;;5029082;28;20028;-85
2021/05/23 06:17:29;;;;;;;38.25;25.85;;;11.30;99.90;;;;;;5040199;28;20115;-84
2021/05/23 06:19:54;;;;;;;36.30;26.15;;;11.30;99.90;;;;;;5044137;28;20452;-85
2021/05/23 06:22:20;;;;;;;34.13;24.60;;;11.30;99.90;;;;;;5061136;28;20024;-85
2021/05/23 06:24:46;;;;;;;31.67;22.33;;;11.30;99.90;;;;;;5044455;28;20036;-85
2021/05/23 06:27:11;;;;;;;30.95;20.75;;;11.30;99.90;;;;;;5061100;28;20028;-85
2021/05/23 06:29:37;;;;;;;30.52;20.83;;;11.20;99.90;;;;;;5075380;28;20039;-85
2021/05/23 06:32:04;;;;;;;24.98;17.75;;;11.20;99.90;;;;;;5032991;28;20028;-85
2021/05/23 06:34:30;;;;;;;30.10;17.02;;;11.20;99.90;;;;;;5043977;28;20497;-85
2021/05/23 06:36:56;;;;;;;24.08;15.90;;;11.20;99.90;;;;;;5064350;28;20054;-85
2021/05/23 06:39:22;;;;;;;25.77;16.00;;;11.20;99.90;;;;;;5060850;28;20047;-86
2021/05/23 06:41:47;;;;;;;29.85;14.50;;;11.20;99.90;;;;;;5045884;28;20043;-85
2021/05/23 06:44:13;;;;;;;22.92;14.45;;;11.10;99.90;;;;;;5057508;28;20390;-86
2021/05/23 06:46:39;;;;;;;21.95;13.60;;;11.10;99.90;;;;;;5075205;28;20572;-86
2021/05/23 06:49:04;;;;;;;20.77;14.02;;;11.10;99.90;;;;;;5045937;28;20024;-85
2021/05/23 06:51:30;;;;;;;20.15;12.38;;;11.10;99.90;;;;;;5101814;28;20056;-86
2021/05/23 06:53:56;;;;;;;22.55;12.95;;;11.10;99.90;;;;;;5049208;28;20127;-85
2021/05/23 06:56:21;;;;;;;24.38;12.50;;;11.10;99.90;;;;;;5068588;28;20080;-85
2021/05/23 06:58:47;;;;;;;20.77;12.25;;;11.10;99.90;;;;;;5052730;28;20036;-85
2021/05/23 07:01:13;;;;;;;23.33;12.40;;;11.10;99.90;;;;;;5058878;28;20029;-86
2021/05/23 07:03:38;;;;;;;17.45;10.30;;;11.10;99.90;;;;;;5022260;28;20033;-85
2021/05/23 07:06:04;;;;;;;19.95;11.40;;;11.00;99.90;;;;;;5033268;28;20068;-85
2021/05/23 07:08:30;;;;;;;21.13;10.38;;;11.00;99.80;;;;;;5010472;28;20091;-85
2021/05/23 07:10:56;;;;;;;23.20;10.95;;;11.00;99.70;;;;;;5020473;28;20036;-85
2021/05/23 07:13:23;;;;;;;18.88;10.10;;;11.00;99.80;;;;;;5036980;28;20029;-85
2021/05/23 07:15:50;;;;;;;19.50;10.75;;;11.00;99.80;;;;;;5003252;28;20060;-86
2021/05/23 07:18:15;;;;;;;19.48;10.27;;;11.00;99.90;;;;;;5020591;28;20060;-86
2021/05/23 07:20:41;;;;;;;15.90;9.48;;;11.00;99.60;;;;;;5036618;28;20029;-86
2021/05/23 07:23:07;;;;;;;20.33;10.73;;;11.00;99.70;;;;;;5008107;28;20030;-86
2021/05/23 07:25:33;;;;;;;19.45;9.90;;;11.00;99.60;;;;;;5011799;28;20085;-87
2021/05/23 07:27:59;;;;;;;15.13;8.55;;;11.00;99.70;;;;;;5043664;28;20029;-85
2021/05/23 07:30:25;;;;;;;15.65;8.60;;;11.00;99.70;;;;;;5046152;28;20112;-86
2021/05/23 07:32:51;;;;;;;18.00;9.43;;;11.00;99.80;;;;;;5042530;28;20029;-86
2021/05/23 07:35:16;;;;;;;18.88;9.48;;;11.00;99.80;;;;;;5022971;28;20471;-87
2021/05/23 07:37:42;;;;;;;17.60;8.38;;;11.00;99.50;;;;;;5016953;28;20034;-86
2021/05/23 07:40:09;;;;;;;17.05;9.15;;;11.10;99.40;;;;;;5028877;28;20079;-86
2021/05/23 07:42:35;;;;;;;16.73;7.35;;;11.10;99.00;;;;;;5016626;28;20056;-85
2021/05/23 07:45:00;;;;;;;18.20;8.68;;;11.10;99.20;;;;;;5014410;28;20038;-84
2021/05/23 07:47:26;;;;;;;13.88;8.25;;;11.10;99.20;;;;;;5021444;28;20064;-85
2021/05/23 07:49:52;;;;;;;17.58;8.18;;;11.10;99.20;;;;;;5032604;28;20037;-84
2021/05/23 07:52:17;;;;;;;18.55;8.10;;;11.10;99.20;;;;;;5012708;28;20034;-84
2021/05/23 07:54:43;;;;;;;13.55;6.45;;;11.20;99.00;;;;;;5030676;28;20040;-84
2021/05/23 07:57:10;;;;;;;12.98;7.20;;;11.20;99.00;;;;;;5015623;28;20147;-85
2021/05/23 07:59:36;;;;;;;15.25;7.20;;;11.20;98.50;;;;;;5031360;28;20010;-85
2021/05/23 08:02:02;;;;;;;15.25;7.43;;;11.10;98.50;;;;;;5017445;28;20036;-85
2021/05/23 08:04:28;;;;;;;13.18;6.78;;;11.10;98.40;;;;;;5039353;28;20036;-84
2021/05/23 08:06:53;;;;;;;15.43;6.47;;;11.10;98.60;;;;;;5081887;28;20046;-84
2021/05/23 08:09:19;;;;;;;13.50;6.20;;;11.10;98.70;;;;;;5050168;28;20060;-85
2021/05/23 08:11:46;;;;;;;11.88;6.72;;;11.20;98.90;;;;;;5082706;28;20098;-84
2021/05/23 08:14:13;;;;;;;11.65;6.15;;;11.20;98.90;;;;;;5049970;28;20029;-85
2021/05/23 08:16:38;;;;;;;15.30;6.57;;;11.20;98.80;;;;;;5067456;28;20032;-85
2021/05/23 08:19:04;;;;;;;14.85;6.40;;;11.30;98.40;;;;;;5078704;28;20029;-86
2021/05/23 08:21:31;;;;;;;12.30;6.82;;;11.30;98.40;;;;;;5042298;28;20123;-86
2021/05/23 08:23:56;;;;;;;12.45;6.28;;;11.30;98.40;;;;;;5026832;28;20036;-85
2021/05/23 08:26:22;;;;;;;14.40;6.65;;;11.30;98.30;;;;;;5048807;28;20020;-85
2021/05/23 08:28:48;;;;;;;11.45;6.78;;;11.30;98.20;;;;;;5053890;28;20537;-84
2021/05/23 08:31:13;;;;;;;13.30;7.47;;;11.30;98.60;;;;;;5020881;28;20493;-85
2021/05/23 08:33:39;;;;;;;14.13;8.15;;;11.30;97.90;;;;;;5055292;28;20051;-85
2021/05/23 08:36:05;;;;;;;14.35;7.30;;;11.40;97.80;;;;;;5038965;28;20025;-85
2021/05/23 08:38:31;;;;;;;15.68;6.88;;;11.50;97.40;;;;;;5019512;28;20032;-85
2021/05/23 08:40:57;;;;;;;16.05;6.63;;;11.50;96.80;;;;;;5043296;28;20040;-85
2021/05/23 08:43:26;;;;;;;12.80;5.53;;;11.60;96.00;;;;;;5054632;28;20025;-84
2021/05/23 08:45:52;;;;;;;10.63;5.47;;;11.60;96.30;;;;;;5055657;28;20028;-86
2021/05/23 08:48:19;;;;;;;13.07;6.03;;;11.60;96.10;;;;;;5051619;28;20028;-85
2021/05/23 08:50:46;;;;;;;11.35;4.82;;;11.60;96.20;;;;;;5062990;28;20028;-84
2021/05/23 08:53:12;;;;;;;13.00;5.32;;;11.60;96.00;;;;;;5072093;28;20402;-84
2021/05/23 08:55:38;;;;;;;11.60;5.72;;;11.70;96.00;;;;;;5077518;28;20025;-84
2021/05/23 08:58:05;;;;;;;10.60;5.05;;;11.70;95.90;;;;;;5056840;28;20020;-85
2021/05/23 09:00:32;;;;;;;8.80;3.72;;;11.70;95.30;;;;;;5031861;28;20115;-85
2021/05/23 09:03:04;;;;;;;11.70;3.33;;;11.80;95.20;;;;;;5049706;28;20021;-84
2021/05/23 09:05:37;;;;;;;9.85;3.65;;;11.80;94.90;;;;;;5050940;28;20095;-85
2021/05/23 09:08:08;;;;;;;9.38;3.15;;;11.80;95.00;;;;;;5032982;28;20025;-85
2021/05/23 09:10:34;;;;;;;;;;;11.80;94.60;;;;;;5036293;28;20462;-85
2021/05/23 09:13:00;;;;;;;6.35;2.88;;;11.90;94.50;;;;;;5015350;28;20008;-86
2021/05/23 09:15:27;;;;;;;10.40;2.78;;;11.90;94.50;;;;;;5030078;28;20028;-86
2021/05/23 09:18:10;;;;;;;10.40;2.85;;;11.90;94.40;;;;;;5043747;28;20021;-84
2021/05/23 09:20:40;;;;;;;7.47;2.60;;;12.00;93.70;;;;;;5043133;28;20018;-86
2021/05/23 09:23:18;;;;;;;7.20;1.90;;;12.10;93.90;;;;;;5049792;28;20096;-86
2021/05/23 09:25:44;;;;;;;5.35;1.65;;;12.20;91.90;;;;;;5051264;28;20422;-85
2021/05/23 09:28:10;;;;;;;6.05;1.40;;;12.20;91.10;;;;;;5015055;28;20032;-86
2021/05/23 09:30:38;;;;;;;7.60;2.20;;;12.30;90.10;;;;;;5031055;28;20028;-86
2021/05/23 09:33:06;;;;;;;5.55;1.50;;;12.30;90.30;;;;;;5050345;28;20018;-85
2021/05/23 09:35:39;;;;;;;5.50;1.52;;;12.30;89.20;;;;;;5027377;28;20119;-86
2021/05/23 09:38:06;;;;;;;5.78;1.73;;;12.30;89.40;;;;;;5022311;28;20021;-85
2021/05/23 09:40:37;;;;;;;2.67;1.30;;;12.30;90.40;;;;;;5051894;28;20382;-86
2021/05/23 09:43:05;;;;;;;6.45;1.13;;;12.30;89.10;;;;;;5033010;28;20048;-85
2021/05/23 09:45:49;;;;;;;3.85;1.10;;;12.40;87.50;;;;;;5020740;28;20467;-85
2021/05/23 09:48:18;;;;;;;4.78;1.40;;;12.50;88.00;;;;;;5051529;28;20021;-88
2021/05/23 09:50:47;;;;;;;3.20;1.05;;;12.70;85.70;;;;;;5048870;28;20013;-87
2021/05/23 09:53:23;;;;;;;8.85;2.15;;;12.90;83.60;;;;;;5053827;28;20409;-85
2021/05/23 09:56:02;;;;;;;5.53;1.60;;;13.00;81.60;;;;;;5057290;28;20021;-85
2021/05/23 09:58:34;;;;;;;3.67;1.52;;;13.10;81.30;;;;;;5053455;28;20017;-85
2021/05/23 10:01:00;;;;;;;9.75;2.65;;;13.10;82.70;;;;;;5057165;28;20019;-85
2021/05/23 10:03:31;;;;;;;7.22;1.33;;;13.10;82.90;;;;;;5055878;28;20069;-85
2021/05/23 10:05:57;;;;;;;;;;;13.20;84.80;;;;;;5072205;28;20053;-85
2021/05/23 10:08:23;;;;;;;5.38;1.63;;;13.30;83.20;;;;;;5034858;28;19909;-86
2021/05/23 10:10:50;;;;;;;5.55;1.60;;;13.30;81.30;;;;;;5019606;28;20026;-85
2021/05/23 10:13:18;;;;;;;5.63;1.60;;;13.40;82.10;;;;;;5033766;28;20356;-85
2021/05/23 10:15:44;;;;;;;7.03;2.08;;;13.60;80.80;;;;;;5041799;28;20118;-86
2021/05/23 10:18:10;;;;;;;4.25;1.58;;;13.60;81.00;;;;;;5021744;28;20013;-86
2021/05/23 10:20:37;;;;;;;5.70;1.42;;;13.70;79.40;;;;;;5024780;28;20104;-86
2021/05/23 10:23:16;;;;;;;4.80;1.85;;;13.80;79.30;;;;;;5048146;28;20048;-86
2021/05/23 10:25:53;;;;;;;4.05;1.83;;;13.80;79.10;;;;;;5051082;28;20013;-87
2021/05/23 10:28:20;;;;;;;5.72;2.58;;;13.70;77.60;;;;;;5047784;28;20021;-86
2021/05/23 10:30:52;;;;;;;6.03;2.47;;;13.70;79.30;;;;;;5044736;28;20022;-86
2021/05/23 10:33:19;;;;;;;5.43;2.00;;;13.70;76.80;;;;;;5036726;28;20025;-86
2021/05/23 10:35:47;;;;;;;7.47;2.15;;;13.60;77.50;;;;;;5039760;28;20018;-86
2021/05/23 10:38:15;;;;;;;8.48;2.30;;;13.50;78.90;;;;;;5030844;28;20013;-86
2021/05/23 10:40:56;;;;;;;6.38;1.75;;;13.50;80.00;;;;;;5036777;28;20013;-86
2021/05/23 10:43:28;;;;;;;6.53;2.30;;;13.40;78.80;;;;;;5053271;28;20025;-86
2021/05/23 10:46:12;;;;;;;4.85;1.95;;;13.30;80.10;;;;;;5029760;28;20026;-86
2021/05/23 10:48:50;;;;;;;6.90;2.00;;;13.30;80.80;;;;;;5059555;28;20017;-85
2021/05/23 10:51:17;;;;;;;5.45;1.90;;;13.30;79.30;;;;;;5059025;28;20032;-85
2021/05/23 10:53:44;;;;;;;6.03;2.00;;;13.40;78.30;;;;;;5039554;28;20033;-85
2021/05/23 10:56:28;;;;;;;4.95;1.98;;;13.50;77.80;;;;;;5023301;28;20048;-87
2021/05/23 10:59:00;;;;;;;4.15;1.60;;;13.50;78.20;;;;;;5040423;28;20048;-86
2021/05/23 11:01:43;;;;;;;6.60;1.80;;;13.50;76.30;;;;;;5055656;28;20021;-86
2021/05/23 11:04:15;;;;;;;4.95;2.03;;;13.50;75.20;;;;;;5040929;28;20498;-86
2021/05/23 11:06:43;;;;;;;7.90;1.60;;;13.50;75.10;;;;;;5055669;28;20200;-85
2021/05/23 11:09:15;;;;;;;5.88;1.70;;;13.50;75.30;;;;;;5060838;28;20032;-85
2021/05/23 11:11:42;;;;;;;7.15;1.80;;;13.60;76.40;;;;;;5059633;28;20090;-85
2021/05/23 11:14:24;;;;;;;5.50;1.90;;;13.60;76.60;;;;;;5052704;28;20029;-85
2021/05/23 11:16:50;;;;;;;6.72;2.00;;;13.80;77.50;;;;;;5054483;28;20032;-85
2021/05/23 11:19:16;;;;;;;5.28;1.50;;;13.90;74.60;;;;;;5038619;28;20021;-85
2021/05/23 11:21:47;;;;;;;5.05;1.67;;;14.00;74.40;;;;;;5052372;28;20078;-86
2021/05/23 11:24:13;;;;;;;3.38;1.45;;;14.20;73.90;;;;;;5048205;28;20071;-86
2021/05/23 11:26:40;;;;;;;6.78;1.77;;;14.30;73.60;;;;;;5029422;28;20026;-86
2021/05/23 11:29:06;;;;;;;4.85;1.60;;;14.30;72.20;;;;;;5038215;28;20474;-86
2021/05/23 11:31:33;;;;;;;6.35;1.63;;;14.30;69.40;;;;;;5038362;28;20048;-88
2021/05/23 11:34:01;;;;;;;6.32;1.75;;;14.30;68.20;;;;;;5038121;28;20029;-86
2021/05/23 11:36:29;;;;;;;6.20;1.90;;;14.30;69.50;;;;;;5038252;28;20112;-86
2021/05/23 11:38:56;;;;;;;5.30;1.90;;;14.40;71.90;;;;;;5054457;28;20017;-86
2021/05/23 11:41:30;;;;;;;4.40;1.48;;;14.50;72.00;;;;;;5022321;28;20029;-87
2021/05/23 11:43:57;;;;;;;8.55;1.90;;;14.60;72.80;;;;;;5028560;28;20022;-86
2021/05/23 11:46:24;;;;;;;4.45;1.63;;;14.60;72.10;;;;;;5019105;28;20037;-87
2021/05/23 11:48:50;;;;;;;5.07;1.95;;;14.70;71.10;;;;;;5001648;28;20164;-87
2021/05/23 11:51:24;;;;;;;5.88;1.75;;;14.70;69.30;;;;;;5017951;28;20025;-87
2021/05/23 11:53:59;;;;;;;7.00;2.05;;;14.80;69.70;;;;;;5001630;28;20035;-87
2021/05/23 11:56:26;;;;;;;3.10;1.27;;;14.80;68.70;;;;;;5029879;28;20071;-86
2021/05/23 11:58:57;;;;;;;8.00;1.77;;;14.80;68.90;;;;;;5037493;28;20490;-86
2021/05/23 12:01:30;;;;;;;5.00;1.40;;;14.80;65.40;;;;;;5035265;28;20475;-86
2021/05/23 12:04:06;;;;;;;6.43;2.28;;;14.80;64.20;;;;;;5036386;23;20026;-88
2021/05/23 12:06:34;;;;;;;4.35;1.27;;;14.80;66.80;;;;;;5051994;28;20038;-89
2021/05/23 12:09:11;;;;;;;4.97;1.38;;;14.80;64.80;;;;;;5036949;28;20048;-88
2021/05/23 12:11:47;;;;;;;6.45;1.92;;;14.90;61.70;;;;;;5035805;28;20021;-91
2021/05/23 12:14:33;;;;;;;5.72;1.70;;;15.00;63.20;;;;;;5041788;28;20080;-88
2021/05/23 12:17:10;;;;;;;4.40;1.50;;;15.00;62.80;;;;;;5042138;28;20025;-87
2021/05/23 12:19:52;;;;;;;2.85;1.23;;;15.10;64.80;;;;;;5025903;28;20021;-89
2021/05/23 12:22:35;;;;;;;5.20;1.52;;;15.20;61.60;;;;;;5029472;28;20020;-88
2021/05/23 12:25:04;;;;;;;6.97;2.20;;;15.20;62.40;;;;;;5037569;28;20119;-89
2021/05/23 12:27:35;;;;;;;5.95;1.60;;;15.20;63.50;;;;;;5045940;28;20029;-89
2021/05/23 12:30:17;;;;;;;4.05;1.42;;;15.20;64.00;;;;;;5037537;28;20029;-88
2021/05/23 12:32:45;;;;;;;3.28;1.10;;;15.30;61.90;;;;;;5037243;28;20100;-89
2021/05/23 12:35:16;;;;;;;6.10;1.70;;;15.40;59.10;;;;;;5042843;28;20033;-89
2021/05/23 12:37:49;;;;;;;4.93;1.60;;;15.50;60.20;;;;;;5032013;28;20094;-88
2021/05/23 12:40:16;;;;;;;3.60;1.42;;;15.60;60.10;;;;;;5045693;28;20025;-89
2021/05/23 12:42:42;;;;;;;3.67;1.27;;;15.70;58.20;;;;;;5045911;28;20024;-89
2021/05/23 12:45:09;;;;;;;6.20;1.65;;;15.80;60.00;;;;;;5020996;28;20029;-89